createdAt,value
2022-12-08T00:01:28.506Z,2.22
2022-12-08T00:03:56.356Z,2.33
2022-12-08T00:06:53.635Z,2.45
2022-12-08T00:09:30.011Z,2.10
2022-12-08T00:12:05.114Z,2.17
2022-12-08T00:14:35.652Z,2.30
2022-12-08T00:17:04.239Z,2.25
2022-12-08T00:19:31.567Z,2.50
2022-12-08T00:21:59.652Z,2.38
2022-12-08T00:24:33.155Z,2.10
2022-12-08T00:27:01.845Z,2.63
2022-12-08T00:29:29.167Z,1.83
2022-12-08T00:31:56.461Z,2.35
2022-12-08T00:34:23.730Z,2.35
2022-12-08T00:36:51.001Z,2.05
2022-12-08T00:39:19.444Z,2.28
2022-12-08T00:42:04.850Z,2.00
2022-12-08T00:44:31.980Z,2.28
2022-12-08T00:46:59.018Z,2.53
2022-12-08T00:49:26.141Z,2.28
2022-12-08T00:51:53.413Z,1.90
2022-12-08T00:54:21.061Z,2.10
2022-12-08T00:56:48.335Z,2.13
2022-12-08T00:59:15.948Z,1.90
2022-12-08T01:01:45.460Z,2.30
2022-12-08T01:04:16.172Z,2.10
2022-12-08T01:06:44.431Z,2.10
2022-12-08T01:09:13.334Z,2.30
2022-12-08T01:11:40.558Z,2.25
2022-12-08T01:14:07.606Z,2.25
2022-12-08T01:16:36.389Z,2.40
2022-12-08T01:19:04.671Z,2.47
2022-12-08T01:21:31.871Z,2.42
2022-12-08T01:24:01.109Z,2.78
2022-12-08T01:26:28.153Z,2.30
2022-12-08T01:28:55.378Z,2.50
2022-12-08T01:31:23.068Z,2.58
2022-12-08T01:33:51.034Z,2.70
2022-12-08T01:36:44.631Z,2.63
2022-12-08T01:39:17.778Z,2.92
2022-12-08T01:41:46.350Z,2.80
2022-12-08T01:44:13.628Z,2.78
2022-12-08T01:46:43.823Z,2.45
2022-12-08T01:49:17.670Z,2.75
2022-12-08T01:51:55.705Z,2.30
2022-12-08T01:54:27.902Z,2.47
2022-12-08T01:57:15.932Z,2.50
2022-12-08T01:59:49.485Z,2.40
2022-12-08T02:02:16.840Z,2.25
2022-12-08T02:04:43.978Z,2.30
2022-12-08T02:07:13.747Z,2.38
2022-12-08T02:09:41.742Z,2.33
2022-12-08T02:12:10.148Z,2.30
2022-12-08T02:14:37.449Z,2.30
2022-12-08T02:17:28.276Z,2.55
2022-12-08T02:20:19.520Z,2.33
2022-12-08T02:23:08.130Z,2.63
2022-12-08T02:26:03.071Z,2.55
2022-12-08T02:28:48.075Z,2.20
2022-12-08T02:31:53.143Z,2.22
2022-12-08T02:34:30.072Z,2.20
2022-12-08T02:37:15.419Z,1.98
2022-12-08T02:39:59.450Z,2.05
2022-12-08T02:42:35.459Z,1.92
2022-12-08T02:47:44.268Z,1.20
2022-12-08T02:50:12.777Z,2.08
2022-12-08T02:52:46.064Z,1.90
2022-12-08T02:55:51.222Z,1.90
2022-12-08T02:58:47.783Z,2.03
2022-12-08T03:01:26.894Z,2.00
2022-12-08T03:04:27.479Z,2.17
2022-12-08T03:07:02.242Z,1.65
2022-12-08T03:10:11.152Z,2.08
2022-12-08T03:12:51.707Z,2.00
2022-12-08T03:15:21.369Z,1.90
2022-12-08T03:17:56.717Z,1.88
2022-12-08T03:20:26.135Z,2.10
2022-12-08T03:22:56.682Z,1.63
2022-12-08T03:25:31.950Z,1.73
2022-12-08T03:28:00.425Z,1.77
2022-12-08T03:30:35.165Z,1.77
2022-12-08T03:33:19.440Z,2.20
2022-12-08T03:35:47.316Z,1.80
2022-12-08T03:38:17.207Z,1.60
2022-12-08T03:41:05.361Z,1.70
2022-12-08T03:43:34.922Z,1.60
2022-12-08T03:46:02.737Z,1.98
2022-12-08T03:48:30.152Z,1.75
2022-12-08T03:50:57.211Z,1.58
2022-12-08T03:53:24.293Z,1.50
2022-12-08T03:55:53.530Z,1.50
2022-12-08T03:58:20.507Z,1.17
2022-12-08T04:00:47.559Z,1.17
2022-12-08T04:03:14.859Z,1.30
2022-12-08T04:05:42.007Z,1.25
2022-12-08T04:08:09.086Z,1.30
2022-12-08T04:10:36.212Z,1.30
2022-12-08T04:13:03.475Z,1.20
2022-12-08T04:15:30.479Z,1.15
2022-12-08T04:17:57.471Z,1.42
2022-12-08T04:20:24.564Z,1.20
2022-12-08T04:22:51.563Z,1.50
2022-12-08T04:25:18.612Z,1.55
2022-12-08T04:27:45.737Z,2.15
2022-12-08T04:30:13.132Z,2.05
2022-12-08T04:32:44.320Z,2.25
2022-12-08T04:35:14.589Z,2.22
2022-12-08T04:37:43.268Z,2.65
2022-12-08T04:40:12.322Z,2.67
2022-12-08T04:42:39.500Z,2.90
2022-12-08T04:45:07.333Z,2.47
2022-12-08T04:47:34.832Z,2.88
2022-12-08T04:50:02.348Z,3.47
2022-12-08T04:52:29.646Z,2.83
2022-12-08T04:54:56.826Z,3.17
2022-12-08T04:57:24.003Z,3.60
2022-12-08T04:59:51.137Z,3.58
2022-12-08T05:02:18.439Z,3.28
2022-12-08T05:04:45.662Z,3.10
2022-12-08T05:07:12.697Z,3.30
2022-12-08T05:09:39.949Z,3.83
2022-12-08T05:12:07.307Z,2.92
2022-12-08T05:14:34.349Z,3.33
2022-12-08T05:17:06.217Z,3.17
2022-12-08T05:19:36.572Z,3.20
2022-12-08T05:22:03.653Z,3.17
2022-12-08T05:24:30.883Z,3.65
2022-12-08T05:26:58.190Z,2.75
2022-12-08T05:29:25.277Z,3.17
2022-12-08T05:31:52.295Z,2.75
2022-12-08T05:34:19.431Z,2.85
2022-12-08T05:36:46.529Z,2.65
2022-12-08T05:39:14.851Z,2.83
2022-12-08T05:41:42.330Z,2.67
2022-12-08T05:44:09.385Z,2.70
2022-12-08T05:46:36.795Z,2.33
2022-12-08T05:49:04.663Z,2.38
2022-12-08T05:51:31.867Z,2.40
2022-12-08T05:53:59.113Z,12.57
2022-12-08T05:56:26.316Z,2.47
2022-12-08T05:58:53.419Z,2.60
2022-12-08T06:01:30.756Z,2.20
2022-12-08T06:04:03.497Z,2.28
2022-12-08T06:06:31.970Z,2.30
2022-12-08T06:08:59.345Z,2.35
2022-12-08T06:11:29.640Z,2.30
2022-12-08T06:13:57.727Z,2.83
2022-12-08T06:16:26.927Z,2.60
2022-12-08T06:18:54.884Z,2.30
2022-12-08T06:21:21.999Z,2.30
2022-12-08T06:23:52.097Z,2.45
2022-12-08T06:26:19.709Z,2.10
2022-12-08T06:28:46.951Z,2.60
2022-12-08T06:31:18.962Z,2.17
2022-12-08T06:33:47.146Z,2.38
2022-12-08T06:36:16.584Z,2.78
2022-12-08T06:38:44.212Z,3.35
2022-12-08T06:41:13.083Z,3.38
2022-12-08T06:43:41.233Z,3.75
2022-12-08T06:46:14.665Z,3.35
2022-12-08T06:48:41.843Z,2.75
2022-12-08T06:51:15.177Z,2.92
2022-12-08T06:53:43.570Z,2.78
2022-12-08T06:56:11.858Z,2.72
2022-12-08T06:58:39.375Z,2.72
2022-12-08T07:01:13.475Z,2.80
2022-12-08T07:03:41.669Z,2.50
2022-12-08T07:06:14.899Z,2.30
2022-12-08T07:08:42.150Z,2.35
2022-12-08T07:11:18.005Z,2.92
2022-12-08T07:13:48.184Z,3.15
2022-12-08T07:16:15.278Z,2.47
2022-12-08T07:18:43.033Z,2.63
2022-12-08T07:21:13.169Z,2.10
2022-12-08T07:23:40.592Z,2.42
2022-12-08T07:26:11.615Z,3.00
2022-12-08T07:28:41.629Z,2.63
2022-12-08T07:31:21.008Z,2.58
2022-12-08T07:33:48.878Z,2.45
2022-12-08T07:36:16.391Z,2.03
2022-12-08T07:38:44.427Z,1.88
2022-12-08T07:41:23.300Z,1.70
2022-12-08T07:43:51.902Z,1.63
2022-12-08T07:46:21.791Z,1.75
2022-12-08T07:48:48.889Z,2.03
2022-12-08T07:51:17.023Z,1.77
2022-12-08T07:53:53.231Z,1.83
2022-12-08T07:56:21.793Z,2.10
2022-12-08T07:58:49.171Z,2.60
2022-12-08T08:01:29.182Z,3.10
2022-12-08T08:04:01.437Z,2.83
2022-12-08T08:06:28.880Z,3.97
2022-12-08T08:08:56.034Z,4.05
2022-12-08T08:11:23.617Z,4.50
2022-12-08T08:13:51.685Z,4.40
2022-12-08T08:16:20.399Z,4.10
2022-12-08T08:18:49.586Z,4.10
2022-12-08T08:24:05.660Z,4.13
2022-12-08T08:26:32.942Z,4.03
2022-12-08T08:28:59.972Z,3.70
2022-12-08T08:31:27.323Z,3.72
2022-12-08T08:33:56.462Z,3.13
2022-12-08T08:36:23.494Z,2.67
2022-12-08T08:38:51.169Z,3.17
2022-12-08T08:41:18.185Z,3.20
2022-12-08T08:43:45.268Z,2.63
2022-12-08T08:46:12.617Z,2.67
2022-12-08T08:48:39.725Z,2.95
2022-12-08T08:51:12.772Z,2.40
2022-12-08T08:53:40.169Z,2.28
2022-12-08T08:56:15.888Z,1.85
2022-12-08T08:58:42.949Z,1.70
2022-12-08T09:01:21.147Z,1.98
2022-12-08T09:03:49.069Z,1.92
2022-12-08T09:06:17.187Z,2.13
2022-12-08T09:08:45.159Z,1.90
2022-12-08T09:11:12.617Z,1.75
2022-12-08T09:13:39.718Z,1.77
2022-12-08T09:16:08.852Z,1.40
2022-12-08T09:18:36.031Z,1.73
2022-12-08T09:21:15.096Z,1.80
2022-12-08T09:23:43.042Z,1.50
2022-12-08T09:26:10.200Z,2.00
2022-12-08T09:28:38.267Z,1.70
2022-12-08T09:31:05.667Z,1.80
2022-12-08T09:33:33.826Z,1.63
2022-12-08T09:36:05.202Z,1.73
2022-12-08T09:38:32.552Z,1.70
2022-12-08T09:41:02.411Z,1.63
2022-12-08T09:43:55.746Z,1.95
2022-12-08T09:46:23.446Z,2.20
2022-12-08T09:48:56.205Z,2.40
2022-12-08T09:51:32.007Z,2.10
2022-12-08T09:54:11.954Z,2.13
2022-12-08T09:56:39.816Z,2.35
2022-12-08T09:59:28.222Z,2.20
2022-12-08T10:01:55.583Z,2.10
2022-12-08T10:04:34.083Z,2.20
2022-12-08T10:07:18.060Z,2.45
2022-12-08T10:10:36.425Z,2.58
2022-12-08T10:13:50.551Z,3.00
2022-12-08T10:16:34.865Z,2.95
2022-12-08T10:19:17.793Z,2.58
2022-12-08T10:21:45.614Z,2.70
2022-12-08T10:24:26.255Z,3.13
2022-12-08T10:26:56.005Z,3.70
2022-12-08T10:29:23.130Z,3.95
2022-12-08T10:31:50.544Z,3.70
2022-12-08T10:34:24.272Z,3.50
2022-12-08T10:36:58.043Z,4.20
2022-12-08T10:39:43.800Z,3.67
2022-12-08T10:42:13.838Z,3.58
2022-12-08T10:45:09.198Z,3.30
2022-12-08T10:47:44.650Z,3.28
2022-12-08T10:53:09.755Z,3.63
2022-12-08T10:55:50.614Z,3.15
2022-12-08T10:58:33.891Z,3.25
2022-12-08T11:01:25.861Z,3.53
2022-12-08T11:03:58.813Z,3.25
2022-12-08T11:06:28.944Z,3.20
2022-12-08T11:08:59.676Z,3.75
2022-12-08T11:11:52.221Z,3.47
2022-12-08T11:14:24.930Z,3.72
2022-12-08T11:16:56.388Z,3.47
2022-12-08T11:19:29.761Z,3.88
2022-12-08T11:21:56.875Z,3.97
2022-12-08T11:24:31.195Z,3.55
2022-12-08T11:27:06.435Z,3.50
2022-12-08T11:29:35.546Z,3.65
2022-12-08T11:32:11.985Z,3.50
2022-12-08T11:34:55.832Z,3.60
2022-12-08T11:37:42.256Z,3.50
2022-12-08T11:43:22.416Z,3.10
2022-12-08T11:46:03.143Z,2.97
2022-12-08T11:48:42.170Z,3.10
2022-12-08T11:51:17.394Z,2.85
2022-12-08T11:53:50.072Z,2.65
2022-12-08T11:56:33.971Z,2.70
2022-12-08T11:59:28.032Z,2.83
2022-12-08T12:01:55.242Z,2.55
2022-12-08T12:04:29.467Z,2.80
2022-12-08T12:07:02.242Z,3.22
2022-12-08T12:09:53.287Z,2.90
2022-12-08T12:12:48.980Z,3.50
2022-12-08T12:15:55.601Z,3.08
2022-12-08T12:18:47.657Z,3.47
2022-12-08T12:21:45.640Z,2.70
2022-12-08T12:24:26.034Z,3.80
2022-12-08T12:27:22.860Z,3.53
2022-12-08T12:30:00.421Z,2.80
2022-12-08T12:32:44.922Z,2.80
2022-12-08T12:35:36.557Z,2.80
2022-12-08T12:38:39.207Z,2.38
2022-12-08T12:41:08.416Z,2.80
2022-12-08T12:43:38.520Z,3.00
2022-12-08T12:46:23.963Z,2.50
2022-12-08T12:48:52.285Z,2.75
2022-12-08T12:51:38.057Z,2.95
2022-12-08T12:54:26.778Z,2.78
2022-12-08T12:56:57.374Z,3.17
2022-12-08T12:59:53.249Z,3.30
2022-12-08T13:02:25.150Z,3.25
2022-12-08T13:05:09.737Z,2.90
2022-12-08T13:07:51.099Z,2.80
2022-12-08T13:10:30.129Z,3.30
2022-12-08T13:13:16.428Z,3.22
2022-12-08T13:15:46.797Z,3.08
2022-12-08T13:18:32.427Z,2.80
2022-12-08T13:21:11.046Z,3.05
2022-12-08T13:23:38.030Z,2.90
2022-12-08T13:26:26.284Z,2.92
2022-12-08T13:28:59.397Z,3.38
2022-12-08T13:31:50.118Z,3.22
2022-12-08T13:34:29.660Z,2.92
2022-12-08T13:37:15.857Z,3.10
2022-12-08T13:40:02.510Z,3.08
2022-12-08T13:42:48.471Z,2.60
2022-12-08T13:45:48.707Z,2.45
2022-12-08T13:49:32.829Z,1.98
2022-12-08T13:57:36.046Z,2.10
2022-12-08T14:00:19.387Z,2.33
2022-12-08T14:02:53.116Z,2.47
2022-12-08T14:05:35.233Z,2.47
2022-12-08T14:11:33.706Z,2.97
2022-12-08T14:14:09.948Z,7.15
2022-12-08T14:16:41.206Z,6.32
2022-12-08T14:19:24.669Z,6.03
2022-12-08T14:22:12.029Z,7.00
2022-12-08T14:24:40.995Z,6.85
2022-12-08T14:27:13.976Z,6.70
2022-12-08T14:29:54.174Z,4.95
2022-12-08T14:32:30.184Z,4.47
2022-12-08T14:37:42.599Z,3.65
2022-12-08T14:40:23.221Z,3.35
2022-12-08T14:43:04.364Z,5.25
2022-12-08T14:45:34.985Z,5.03
2022-12-08T14:48:27.789Z,7.47
2022-12-08T14:51:18.287Z,5.70
2022-12-08T14:54:06.615Z,4.50
2022-12-08T14:57:07.898Z,4.13
2022-12-08T14:59:38.263Z,3.83
2022-12-08T15:02:24.243Z,4.63
2022-12-08T15:05:17.644Z,4.20
2022-12-08T15:07:53.031Z,4.20
2022-12-08T15:10:26.681Z,3.33
2022-12-08T15:13:12.397Z,3.70
2022-12-08T15:15:55.351Z,4.13
2022-12-08T15:18:31.890Z,4.30
2022-12-08T15:21:05.907Z,4.13
2022-12-08T15:23:44.705Z,4.57
2022-12-08T15:26:24.711Z,7.97
2022-12-08T15:28:51.977Z,8.45
2022-12-08T15:31:19.425Z,8.45
2022-12-08T15:33:46.825Z,9.88
2022-12-08T15:36:13.930Z,9.90
2022-12-08T15:38:40.966Z,7.07
2022-12-08T15:41:13.010Z,7.05
2022-12-08T15:43:41.874Z,6.75
2022-12-08T15:46:09.033Z,6.68
2022-12-08T15:48:37.867Z,6.20
2022-12-08T15:51:05.081Z,6.15
2022-12-08T15:53:32.545Z,5.20
2022-12-08T15:56:26.946Z,5.00
2022-12-08T15:58:54.101Z,4.85
2022-12-08T16:01:23.240Z,5.50
2022-12-08T16:07:19.605Z,4.88
2022-12-08T16:09:41.128Z,5.22
2022-12-08T16:18:23.848Z,5.28
2022-12-08T16:23:45.787Z,6.03
2022-12-08T16:29:07.630Z,6.13
2022-12-08T16:31:34.888Z,6.38
2022-12-08T16:34:02.143Z,6.18
2022-12-08T16:36:29.314Z,5.72
2022-12-08T16:38:56.442Z,6.57
2022-12-08T16:41:42.292Z,6.78
2022-12-08T16:46:37.219Z,5.55
2022-12-08T16:49:08.520Z,5.28
2022-12-08T16:51:35.804Z,6.00
2022-12-08T16:54:03.002Z,5.50
2022-12-08T16:56:33.188Z,6.07
2022-12-08T16:59:02.308Z,6.20
2022-12-08T17:01:29.919Z,5.97
2022-12-08T17:04:29.147Z,6.40
2022-12-08T17:06:44.089Z,7.07
2022-12-08T17:09:11.088Z,7.63
2022-12-08T17:11:43.070Z,7.97
2022-12-08T17:14:13.006Z,8.50
2022-12-08T17:16:40.410Z,7.95
2022-12-08T17:19:07.751Z,7.50
2022-12-08T17:21:34.968Z,8.18
2022-12-08T17:24:02.072Z,7.60
2022-12-08T17:26:29.119Z,8.00
2022-12-08T17:29:01.046Z,8.18
2022-12-08T17:31:31.021Z,9.77
2022-12-08T17:34:10.979Z,9.40
2022-12-08T17:36:38.436Z,10.98
2022-12-08T17:39:12.012Z,11.00
2022-12-08T17:41:42.495Z,8.40
2022-12-08T17:44:16.248Z,8.80
2022-12-08T17:46:50.520Z,8.30
2022-12-08T17:49:24.589Z,7.45
2022-12-08T17:51:54.817Z,8.73
2022-12-08T17:54:22.648Z,8.02
2022-12-08T17:56:49.773Z,7.97
2022-12-08T17:59:17.119Z,9.40
2022-12-08T18:01:44.430Z,9.73
2022-12-08T18:04:12.940Z,9.50
2022-12-08T18:06:40.598Z,10.15
2022-12-08T18:09:08.750Z,9.75
2022-12-08T18:11:36.794Z,9.52
2022-12-08T18:14:09.784Z,10.32
2022-12-08T18:16:47.511Z,10.57
2022-12-08T18:19:15.867Z,11.68
2022-12-08T18:21:43.669Z,9.95
2022-12-08T18:24:22.207Z,9.80
2022-12-08T18:26:52.086Z,9.70
2022-12-08T18:29:21.445Z,11.48
2022-12-08T18:31:48.882Z,14.00
2022-12-08T18:34:18.957Z,12.85
2022-12-08T18:36:46.696Z,13.80
2022-12-08T18:39:29.938Z,12.82
2022-12-08T18:41:59.404Z,12.52
2022-12-08T18:44:26.862Z,14.02
2022-12-08T18:46:54.077Z,12.93
2022-12-08T18:49:21.222Z,13.45
2022-12-08T18:51:48.678Z,12.35
2022-12-08T18:54:15.941Z,12.50
2022-12-08T18:56:44.451Z,11.88
2022-12-08T18:59:13.876Z,13.13
2022-12-08T19:01:41.173Z,11.27
2022-12-08T19:04:27.906Z,11.20
2022-12-08T19:06:56.483Z,12.02
2022-12-08T19:09:25.999Z,12.75
2022-12-08T19:11:53.283Z,12.43
2022-12-08T19:14:25.903Z,12.55
2022-12-08T19:16:55.147Z,12.93
2022-12-08T19:19:22.235Z,12.25
2022-12-08T19:21:49.692Z,11.63
2022-12-08T19:24:17.259Z,11.88
2022-12-08T19:26:44.795Z,12.05
2022-12-08T19:29:12.197Z,12.02
2022-12-08T19:31:40.512Z,12.02
2022-12-08T19:34:09.262Z,11.85
2022-12-08T19:36:42.127Z,12.00
2022-12-08T19:39:37.452Z,12.18
2022-12-08T19:42:32.175Z,11.57
2022-12-08T19:45:10.121Z,12.57
2022-12-08T19:47:38.410Z,12.48
2022-12-08T19:50:25.561Z,12.55
2022-12-08T19:52:52.991Z,13.27
2022-12-08T19:55:24.680Z,13.50
2022-12-08T19:57:58.302Z,14.68
2022-12-08T20:00:25.997Z,13.85
2022-12-08T20:02:53.239Z,14.05
2022-12-08T20:05:20.515Z,14.70
2022-12-08T20:07:47.770Z,16.00
2022-12-08T20:10:19.839Z,14.88
2022-12-08T20:12:47.153Z,15.90
2022-12-08T20:15:14.967Z,14.73
2022-12-08T20:17:42.627Z,14.55
2022-12-08T20:20:11.926Z,15.25
2022-12-08T20:22:39.383Z,15.63
2022-12-08T20:25:07.529Z,15.23
2022-12-08T20:27:34.783Z,14.57
2022-12-08T20:30:02.107Z,14.85
2022-12-08T20:32:29.199Z,15.07
2022-12-08T20:34:56.265Z,15.60
2022-12-08T20:37:23.494Z,14.63
2022-12-08T20:39:52.303Z,15.55
2022-12-08T20:42:20.189Z,15.82
2022-12-08T20:44:47.370Z,15.52
2022-12-08T20:47:14.471Z,16.02
2022-12-08T20:49:41.812Z,15.15
2022-12-08T20:52:09.461Z,15.55
2022-12-08T20:54:37.684Z,16.42
2022-12-08T20:57:05.494Z,16.25
2022-12-08T20:59:32.892Z,16.05
2022-12-08T21:02:00.681Z,15.88
2022-12-08T21:04:28.297Z,15.63
2022-12-08T21:06:55.714Z,16.52
2022-12-08T21:09:23.056Z,16.52
2022-12-08T21:11:50.409Z,15.85
2022-12-08T21:14:17.661Z,16.17
2022-12-08T21:16:45.015Z,16.33
2022-12-08T21:19:12.527Z,16.75
2022-12-08T21:21:39.662Z,16.33
2022-12-08T21:24:07.811Z,15.98
2022-12-08T21:26:35.452Z,16.95
2022-12-08T21:29:02.600Z,17.35
2022-12-08T21:31:31.988Z,17.35
2022-12-08T21:34:01.235Z,17.13
2022-12-08T21:36:30.223Z,18.00
2022-12-08T21:39:02.873Z,18.05
2022-12-08T21:41:49.349Z,19.00
2022-12-08T21:44:20.552Z,20.02
2022-12-08T21:46:48.023Z,18.52
2022-12-08T21:49:16.360Z,18.67
2022-12-08T21:51:43.781Z,18.35
2022-12-08T21:54:18.722Z,16.38
2022-12-08T21:56:48.035Z,14.65
2022-12-08T21:59:16.711Z,15.05
2022-12-08T22:01:44.051Z,15.00
2022-12-08T22:04:12.716Z,14.68
2022-12-08T22:06:40.067Z,16.85
2022-12-08T22:09:09.869Z,16.05
2022-12-08T22:11:37.654Z,17.40
2022-12-08T22:14:08.238Z,15.77
2022-12-08T22:16:38.478Z,15.70
2022-12-08T22:19:05.710Z,16.20
2022-12-08T22:21:32.870Z,16.38
2022-12-08T22:24:01.015Z,16.25
2022-12-08T22:26:28.208Z,15.68
2022-12-08T22:28:55.420Z,16.10
2022-12-08T22:31:22.873Z,15.10
2022-12-08T22:33:51.155Z,15.07
2022-12-08T22:36:21.975Z,15.70
2022-12-08T22:38:50.170Z,14.13
2022-12-08T22:41:18.268Z,14.07
2022-12-08T22:43:46.385Z,14.57
2022-12-08T22:46:18.775Z,14.38
2022-12-08T22:48:46.528Z,13.77
2022-12-08T22:51:15.130Z,15.13
2022-12-08T22:53:42.679Z,14.63
2022-12-08T22:56:12.235Z,14.38
2022-12-08T22:58:41.435Z,15.25
2022-12-08T23:01:09.004Z,14.65
2022-12-08T23:03:36.336Z,15.95
2022-12-08T23:06:12.329Z,15.60
2022-12-08T23:11:07.311Z,15.77
2022-12-08T23:13:34.603Z,16.02
2022-12-08T23:16:01.900Z,15.90
2022-12-08T23:18:29.339Z,15.10
2022-12-08T23:20:56.676Z,15.55
2022-12-08T23:23:23.923Z,15.98
2022-12-08T23:25:53.826Z,15.75
2022-12-08T23:28:21.061Z,14.93
2022-12-08T23:30:48.089Z,15.02
2022-12-08T23:33:15.726Z,15.70
2022-12-08T23:35:42.916Z,15.68
2022-12-08T23:38:09.925Z,15.30
2022-12-08T23:40:36.923Z,16.67
2022-12-08T23:43:06.173Z,16.25
2022-12-08T23:45:33.549Z,16.92
2022-12-08T23:48:00.820Z,17.02
2022-12-08T23:50:28.022Z,17.92
2022-12-08T23:52:55.112Z,17.33
2022-12-08T23:55:22.566Z,18.02
2022-12-08T23:57:49.715Z,17.67
